Time;durP1;ratioP1;P1;durP2;ratioP2;P2;SDS_P1;SDS_P2;PMS_P1;PMS_P2;Temp;Humidity;BMP_temperature;BMP_pressure;BME280_temperature;BME280_humidity;BME280_pressure;Samples;Min_cycle;Max_cycle;Signal;HPM_P1;HPM_P2
2021/12/20 00:01:15;;;;;;;2.85;1.32;;;;;;;-0.26;96.82;97703.20;1808129;78;21050;-66
2021/12/20 00:03:43;;;;;;;4.62;1.30;;;;;;;-0.29;96.57;97702.44;1838167;78;20860;-68
2021/12/20 00:06:09;;;;;;;4.55;1.77;;;;;;;-0.32;96.64;97707.08;1808555;78;21007;-67
2021/12/20 00:08:36;;;;;;;2.60;1.65;;;;;;;-0.32;96.60;97711.14;1837951;77;20980;-66
2021/12/20 00:11:04;;;;;;;5.10;1.35;;;;;;;-0.29;96.68;97711.12;1838085;78;20963;-67
2021/12/20 00:13:33;;;;;;;2.35;1.37;;;;;;;-0.28;96.72;97723.02;1838204;78;21027;-67
2021/12/20 00:16:01;;;;;;;2.77;1.37;;;;;;;-0.27;96.73;97717.84;1838494;78;21424;-67
2021/12/20 00:18:30;;;;;;;3.12;1.05;;;;;;;-0.25;96.63;97718.90;1838040;77;20872;-67
2021/12/20 00:20:58;;;;;;;1.37;0.90;;;;;;;-0.27;96.47;97721.91;1837915;78;20809;-67
2021/12/20 00:23:26;;;;;;;5.05;1.60;;;;;;;-0.32;96.21;97719.80;1838287;78;21038;-68
2021/12/20 00:25:53;;;;;;;1.95;1.30;;;;;;;-0.37;96.34;97721.50;1807993;78;20893;-66
2021/12/20 00:28:22;;;;;;;3.42;1.40;;;;;;;-0.37;96.38;97727.45;1808195;78;20809;-68
2021/12/20 00:30:50;;;;;;;8.60;1.80;;;;;;;-0.39;96.35;97729.64;1838123;78;21136;-66
2021/12/20 00:33:16;;;;;;;2.90;1.32;;;;;;;-0.40;96.42;97726.69;1808104;78;20864;-67
2021/12/20 00:35:44;;;;;;;4.03;1.67;;;;;;;-0.37;96.56;97723.39;1807925;78;21429;-68
2021/12/20 00:41:00;;;;;;;2.52;1.57;;;;;;;-0.32;96.45;97727.38;1838109;78;20947;-66
2021/12/20 00:43:27;;;;;;;5.58;2.72;;;;;;;-0.27;96.46;97731.38;1809222;78;22117;-68
2021/12/20 00:45:54;;;;;;;3.72;1.85;;;;;;;-0.25;96.35;97740.55;1837883;77;20935;-66
2021/12/20 00:48:24;;;;;;;5.05;2.20;;;;;;;-0.22;96.11;97739.19;1838018;77;20904;-67
2021/12/20 00:50:53;;;;;;;5.95;2.20;;;;;;;-0.21;96.03;97734.02;1838327;77;21096;-66
2021/12/20 00:53:20;;;;;;;5.08;2.58;;;;;;;-0.22;95.94;97736.48;1838118;77;21015;-67
2021/12/20 00:55:46;;;;;;;4.65;2.10;;;;;;;-0.24;95.77;97740.83;1837990;77;21033;-68
2021/12/20 00:58:13;;;;;;;6.00;2.40;;;;;;;-0.27;95.66;97734.08;1837976;78;21425;-67
2021/12/20 01:00:44;;;;;;;5.62;2.10;;;;;;;-0.26;95.68;97743.02;1838031;78;21266;-68
2021/12/20 01:03:15;;;;;;;4.10;1.72;;;;;;;-0.26;95.67;97741.66;1807386;78;20943;-65
2021/12/20 01:05:41;;;;;;;6.25;2.33;;;;;;;-0.27;95.44;97744.09;1838390;78;20943;-68
2021/12/20 01:08:09;;;;;;;5.80;2.25;;;;;;;-0.29;95.29;97746.31;1807933;78;21023;-68
2021/12/20 01:10:39;;;;;;;5.60;1.98;;;;;;;-0.31;95.42;97737.13;1843259;77;20950;-66
2021/12/20 01:13:08;;;;;;;5.50;2.85;;;;;;;-0.29;95.43;97743.61;1844260;77;20855;-67
2021/12/20 01:15:40;;;;;;;7.15;3.25;;;;;;;-0.28;95.50;97744.67;1844508;77;20921;-67
2021/12/20 01:18:07;;;;;;;8.85;3.55;;;;;;;-0.27;95.43;97750.86;1844089;77;20901;-68
2021/12/20 01:20:35;;;;;;;5.95;2.80;;;;;;;-0.27;95.46;97744.91;1844165;77;21034;-68
2021/12/20 01:23:03;;;;;;;6.20;3.02;;;;;;;-0.27;95.34;97738.69;1844299;77;20963;-67
2021/12/20 01:25:31;;;;;;;6.92;3.47;;;;;;;-0.29;95.33;97749.80;1844201;77;21006;-67
2021/12/20 01:27:57;;;;;;;7.87;2.62;;;;;;;-0.26;95.43;97753.84;1844277;77;20899;-68
2021/12/20 01:30:25;;;;;;;5.95;3.12;;;;;;;-0.25;95.43;97752.20;1844343;77;20950;-68
2021/12/20 01:32:54;;;;;;;9.63;3.98;;;;;;;-0.22;95.43;97748.66;1844212;77;21915;-67
2021/12/20 01:35:23;;;;;;;6.58;3.37;;;;;;;-0.20;95.36;97755.92;1818321;77;21465;-67
2021/12/20 01:37:52;;;;;;;7.78;4.03;;;;;;;-0.21;95.12;97756.48;1844246;77;20982;-67
2021/12/20 01:40:20;;;;;;;6.22;3.05;;;;;;;-0.26;94.97;97754.63;1844255;77;20856;-68
2021/12/20 01:42:49;;;;;;;4.75;2.60;;;;;;;-0.26;94.97;97756.56;1818634;77;20895;-66
2021/12/20 01:45:18;;;;;;;4.35;2.30;;;;;;;-0.27;95.00;97753.03;1844112;77;21034;-67
2021/12/20 01:47:49;;;;;;;3.98;2.00;;;;;;;-0.28;94.82;97747.91;1844154;77;20919;-67
2021/12/20 01:50:36;;;;;;;4.67;1.70;;;;;;;-0.32;94.62;97751.75;1844256;77;20995;-66
2021/12/20 01:52:47;;;;;;;4.87;1.80;;;;;;;-0.34;94.71;97744.45;1840580;77;20991;-67
2021/12/20 01:55:18;;;;;;;4.55;1.98;;;;;;;-0.32;94.75;97740.11;1844879;77;20959;-66
2021/12/20 01:57:47;;;;;;;5.47;1.87;;;;;;;-0.32;94.51;97746.88;1844185;77;21130;-66
2021/12/20 02:00:19;;;;;;;4.75;2.02;;;;;;;-0.35;94.28;97747.45;1818756;77;20955;-67
2021/12/20 02:03:00;;;;;;;4.47;2.42;;;;;;;-0.38;94.31;97744.80;1844039;77;21024;-66
2021/12/20 02:05:46;;;;;;;6.78;2.50;;;;;;;-0.37;94.50;97747.22;1843547;77;20972;-67
2021/12/20 02:08:13;;;;;;;6.37;2.10;;;;;;;-0.32;94.49;97747.69;1840971;77;20888;-67
2021/12/20 02:10:33;;;;;;;5.50;2.33;;;;;;;-0.32;94.35;97743.63;1838042;77;21138;-67
2021/12/20 02:13:01;;;;;;;3.83;1.67;;;;;;;-0.31;94.39;97746.61;1808488;78;20935;-67
2021/12/20 02:15:28;;;;;;;3.55;2.08;;;;;;;-0.30;94.40;97749.56;1838310;78;20817;-67
2021/12/20 02:17:55;;;;;;;3.52;1.85;;;;;;;-0.27;94.35;97754.39;1807775;78;21015;-66
2021/12/20 02:20:26;;;;;;;4.87;2.10;;;;;;;-0.27;94.25;97752.22;1838302;78;21035;-66
2021/12/20 02:22:58;;;;;;;5.37;2.65;;;;;;;-0.33;94.08;97751.50;1807750;78;21004;-67
2021/12/20 02:25:26;;;;;;;7.55;1.80;;;;;;;-0.34;94.20;97755.86;1838039;78;21444;-66
2021/12/20 02:27:53;;;;;;;3.65;1.98;;;;;;;-0.34;94.25;97753.94;1838006;77;21484;-65
2021/12/20 02:38:34;;;;;;;3.10;1.95;;;;;;;-0.34;93.95;97763.98;1808052;78;21452;-66
2021/12/20 02:41:10;;;;;;;4.53;2.05;;;;;;;-0.37;93.93;97764.81;1838277;78;21003;-66
2021/12/20 02:43:42;;;;;;;5.25;2.15;;;;;;;-0.37;93.96;97768.05;1836637;78;20979;-67
2021/12/20 02:47:25;;;;;;;;;;;;;;;;;;;;;
2021/12/20 02:49:01;;;;;;;4.20;1.92;;;;;;;-0.43;93.90;97765.16;1819648;78;22115;-66
2021/12/20 02:51:27;;;;;;;4.58;2.30;;;;;;;-0.44;93.81;97764.35;1808318;78;20901;-68
2021/12/20 02:53:56;;;;;;;2.75;1.85;;;;;;;-0.44;93.73;97760.83;1838224;78;21515;-69
2021/12/20 02:56:23;;;;;;;4.42;1.95;;;;;;;-0.48;93.60;97761.17;1837797;77;21491;-68
2021/12/20 02:58:51;;;;;;;3.22;1.90;;;;;;;-0.51;93.60;97764.70;1837970;78;20896;-69
2021/12/20 03:01:18;;;;;;;4.50;2.27;;;;;;;-0.52;93.63;97763.64;1837892;77;21496;-68
2021/12/20 03:03:47;;;;;;;3.87;1.95;;;;;;;-0.57;93.55;97764.52;1837877;78;20932;-69
2021/12/20 03:06:22;;;;;;;4.45;2.08;;;;;;;-0.58;93.54;97762.11;1837916;77;20885;-67
2021/12/20 03:08:51;;;;;;;4.83;2.17;;;;;;;-0.58;93.66;97768.87;1837987;78;20825;-67
2021/12/20 03:11:19;;;;;;;11.60;1.85;;;;;;;-0.57;93.70;97774.53;1837822;77;20927;-68
2021/12/20 03:13:49;;;;;;;4.30;2.30;;;;;;;-0.56;93.64;97776.16;1807881;78;21036;-68
2021/12/20 03:16:13;;;;;;;4.55;2.15;;;;;;;-0.54;93.68;97769.89;1808095;78;20964;-66
2021/12/20 03:18:41;;;;;;;6.08;2.70;;;;;;;-0.50;93.67;97783.11;1838060;78;20943;-66
2021/12/20 03:21:08;;;;;;;6.45;2.52;;;;;;;-0.49;93.63;97776.59;1807765;78;20885;-68
2021/12/20 03:23:36;;;;;;;5.28;2.10;;;;;;;-0.46;93.56;97778.72;1807893;78;20821;-67
2021/12/20 03:26:05;;;;;;;5.22;1.80;;;;;;;-0.44;93.34;97773.83;1808558;78;21095;-67
2021/12/20 03:28:33;;;;;;;5.60;1.90;;;;;;;-0.45;93.24;97770.05;1807839;78;21535;-66
2021/12/20 03:30:59;;;;;;;5.83;1.67;;;;;;;-0.47;92.96;97776.30;1838318;78;20876;-68
2021/12/20 03:33:26;;;;;;;3.17;1.52;;;;;;;-0.49;93.02;97775.23;1837682;78;20975;-65
2021/12/20 03:35:54;;;;;;;3.27;1.57;;;;;;;-0.48;93.00;97779.58;1807969;78;20980;-67
2021/12/20 03:38:22;;;;;;;6.62;2.10;;;;;;;-0.47;93.01;97777.66;1807872;78;21156;-67
2021/12/20 03:40:50;;;;;;;4.40;2.10;;;;;;;-0.46;93.04;97778.72;1837948;77;20883;-67
2021/12/20 03:43:23;;;;;;;3.67;1.82;;;;;;;-0.44;92.98;97778.42;1837934;77;20929;-67
2021/12/20 03:45:51;;;;;;;3.47;1.47;;;;;;;-0.45;92.83;97778.17;1808060;78;20948;-66
2021/12/20 03:48:23;;;;;;;4.45;2.00;;;;;;;-0.48;92.88;97775.52;1838104;77;20912;-67
2021/12/20 03:50:50;;;;;;;4.15;1.42;;;;;;;-0.54;99.46;97779.36;1808168;78;21069;-68
2021/12/20 03:53:18;;;;;;;6.15;1.60;;;;;;;-0.56;100.00;97783.70;1837904;77;20927;-68
2021/12/20 03:55:44;;;;;;;3.85;1.87;;;;;;;-0.59;100.00;97778.88;1838290;78;20932;-68
2021/12/20 03:58:12;;;;;;;5.12;2.00;;;;;;;-0.59;96.31;97788.35;1838002;78;20916;-67
2021/12/20 04:00:39;;;;;;;4.20;2.17;;;;;;;-0.61;95.88;97781.06;1808253;78;20954;-68
2021/12/20 04:03:12;;;;;;;5.28;2.30;;;;;;;-0.61;95.83;97789.17;1837996;78;21169;-67
2021/12/20 04:05:38;;;;;;;5.65;1.90;;;;;;;-0.62;95.86;97791.64;1837767;78;21417;-68
2021/12/20 04:08:07;;;;;;;3.72;2.08;;;;;;;-0.63;95.90;97788.66;1837989;77;21531;-68
2021/12/20 04:10:33;;;;;;;3.33;1.65;;;;;;;-0.64;95.89;97785.16;1840632;77;20955;-66
2021/12/20 04:13:04;;;;;;;5.25;2.12;;;;;;;-0.64;95.97;97789.76;1844298;77;20994;-67
2021/12/20 04:15:30;;;;;;;5.65;2.35;;;;;;;-0.64;95.90;97791.11;1844553;77;22043;-67
2021/12/20 04:17:58;;;;;;;4.47;1.60;;;;;;;-0.64;95.82;97795.98;1844212;77;20970;-66
2021/12/20 04:20:28;;;;;;;2.62;1.47;;;;;;;-0.63;95.82;97800.83;1844277;77;20923;-66
2021/12/20 04:22:55;;;;;;;4.58;2.45;;;;;;;-0.63;96.10;97802.19;1844205;77;20943;-66
2021/12/20 04:25:22;;;;;;;3.60;1.82;;;;;;;-0.65;97.04;97809.80;1844614;77;21002;-67
2021/12/20 04:27:49;;;;;;;5.45;1.82;;;;;;;-0.67;97.32;97811.98;1818386;77;20975;-67
2021/12/20 04:30:18;;;;;;;6.28;1.90;;;;;;;-0.69;97.10;97816.33;1844632;77;20888;-66
2021/12/20 04:32:45;;;;;;;3.02;1.42;;;;;;;-0.69;96.90;97821.75;1818706;77;20975;-67
2021/12/20 04:35:15;;;;;;;3.00;1.70;;;;;;;-0.68;96.59;97813.09;1818378;77;21035;-68
2021/12/20 04:37:44;;;;;;;5.65;1.82;;;;;;;-0.70;96.52;97814.70;1844279;77;20958;-66
2021/12/20 04:40:18;;;;;;;3.62;1.22;;;;;;;-0.70;96.50;97813.91;1844227;77;20999;-67
2021/12/20 04:42:47;;;;;;;3.52;1.50;;;;;;;-0.68;96.54;97821.20;1844379;77;20978;-66
2021/12/20 04:45:17;;;;;;;4.20;1.65;;;;;;;-0.67;96.44;97832.27;1844770;77;20912;-67
2021/12/20 04:47:44;;;;;;;3.83;1.72;;;;;;;-0.67;96.48;97830.92;1844525;77;20951;-67
2021/12/20 04:50:10;;;;;;;2.85;1.72;;;;;;;-0.67;96.45;97825.52;1844237;77;21019;-66
2021/12/20 04:52:37;;;;;;;5.28;1.90;;;;;;;-0.67;96.52;97829.57;1844317;77;21045;-66
2021/12/20 04:55:08;;;;;;;3.90;1.57;;;;;;;-0.66;96.61;97823.87;1844168;77;20907;-67
2021/12/20 04:57:37;;;;;;;7.25;1.82;;;;;;;-0.65;96.53;97830.09;1818332;77;20976;-65
2021/12/20 05:00:12;;;;;;;4.83;2.00;;;;;;;-0.63;96.53;97831.95;1844358;77;20938;-67
2021/12/20 05:02:42;;;;;;;3.77;2.25;;;;;;;-0.62;96.46;97826.81;1844304;77;21361;-67
2021/12/20 05:05:11;;;;;;;3.45;2.22;;;;;;;-0.62;96.34;97829.52;1844186;77;20916;-66
2021/12/20 05:07:39;;;;;;;4.25;2.15;;;;;;;-0.70;96.17;97837.70;1818504;77;20916;-66
2021/12/20 05:10:13;;;;;;;2.75;1.80;;;;;;;-0.71;96.42;97844.21;1844593;77;20952;-66
2021/12/20 05:12:41;;;;;;;3.60;1.95;;;;;;;-0.75;96.60;97839.92;1844160;77;23002;-66
2021/12/20 05:15:09;;;;;;;4.12;2.45;;;;;;;-0.76;96.63;97843.73;1818624;77;20924;-67
2021/12/20 05:17:36;;;;;;;5.70;3.25;;;;;;;-0.74;96.54;97842.91;1844163;77;21128;-66
2021/12/20 05:20:06;;;;;;;5.97;3.20;;;;;;;-0.73;96.36;97839.62;1844341;77;20920;-67
2021/12/20 05:22:38;;;;;;;5.30;2.52;;;;;;;-0.73;96.18;97840.98;1818770;77;21555;-66
2021/12/20 05:25:08;;;;;;;5.08;2.65;;;;;;;-0.74;96.11;97838.84;1844284;77;21461;-67
2021/12/20 05:27:37;;;;;;;8.68;2.45;;;;;;;-0.72;96.02;97853.44;1818538;77;20924;-67
2021/12/20 05:30:10;;;;;;;6.10;3.20;;;;;;;-0.78;95.52;97847.26;1844293;77;21119;-67
2021/12/20 05:32:40;;;;;;;3.75;2.27;;;;;;;-0.79;95.68;97847.55;1844119;77;20959;-66
2021/12/20 05:35:13;;;;;;;3.22;2.30;;;;;;;-0.79;95.52;97847.55;1844600;77;20928;-68
2021/12/20 05:37:40;;;;;;;4.62;2.00;;;;;;;-0.79;95.39;97857.83;1844209;77;20891;-67
2021/12/20 05:40:09;;;;;;;4.67;2.30;;;;;;;-0.79;95.31;97857.83;1844531;77;21480;-67
2021/12/20 05:42:38;;;;;;;7.33;3.27;;;;;;;-0.78;95.22;97864.02;1843744;77;21444;-66
2021/12/20 05:45:09;;;;;;;5.37;3.00;;;;;;;-0.77;95.27;97861.03;1844587;77;20896;-67
2021/12/20 05:47:42;;;;;;;7.17;2.65;;;;;;;-0.72;95.26;97860.73;1818463;77;21014;-66
2021/12/20 05:50:10;;;;;;;6.20;2.98;;;;;;;-0.70;95.16;97870.16;1844162;77;21506;-67
2021/12/20 05:52:38;;;;;;;5.47;3.50;;;;;;;-0.69;95.01;97870.98;1844087;77;20853;-68
2021/12/20 05:55:06;;;;;;;5.50;3.12;;;;;;;-0.68;94.95;97877.45;1844096;77;21865;-67
2021/12/20 05:57:37;;;;;;;5.08;2.58;;;;;;;-0.71;94.83;97870.45;1844337;77;20968;-67
2021/12/20 06:00:18;;;;;;;4.83;2.55;;;;;;;-0.70;94.88;97877.49;1844526;77;20856;-65
2021/12/20 06:02:49;;;;;;;3.42;2.27;;;;;;;-0.70;94.84;97874.22;1844619;77;21441;-68
2021/12/20 06:05:16;;;;;;;8.65;3.45;;;;;;;-0.68;94.88;97881.52;1844488;77;21377;-68
2021/12/20 06:07:43;;;;;;;14.73;3.80;;;;;;;-0.66;94.87;97882.05;1844189;77;21128;-67
2021/12/20 06:10:13;;;;;;;13.00;4.03;;;;;;;-0.65;94.81;97885.00;1844451;77;20916;-65
2021/12/20 06:12:43;;;;;;;9.28;3.70;;;;;;;-0.64;94.75;97888.52;1826934;78;20914;-67
2021/12/20 06:15:11;;;;;;;15.40;5.12;;;;;;;-0.63;94.77;97882.81;1808926;78;20925;-67
2021/12/20 06:17:39;;;;;;;11.30;4.28;;;;;;;-0.63;94.69;97890.12;1826835;78;21452;-66
2021/12/20 06:20:11;;;;;;;5.28;2.87;;;;;;;-0.63;94.71;97894.17;1826887;78;21137;-68
2021/12/20 06:22:40;;;;;;;7.28;2.95;;;;;;;-0.60;94.80;97886.87;1827267;78;21408;-68
2021/12/20 06:25:11;;;;;;;10.43;2.67;;;;;;;-0.58;94.72;97893.34;1826832;78;21534;-68
2021/12/20 06:27:38;;;;;;;4.97;3.30;;;;;;;-0.54;94.74;97901.13;1808600;78;20981;-68
2021/12/20 06:30:12;;;;;;;7.20;3.42;;;;;;;-0.52;94.64;97901.66;1827038;78;20919;-70
2021/12/20 06:32:43;;;;;;;7.25;3.70;;;;;;;-0.52;94.49;97906.53;1808813;78;21037;-67
2021/12/20 06:35:13;;;;;;;5.58;2.45;;;;;;;-0.54;94.24;97910.06;1827258;78;21008;-67
2021/12/20 06:37:43;;;;;;;10.05;4.47;;;;;;;-0.56;94.28;97901.98;1827284;78;20981;-66
2021/12/20 06:40:10;;;;;;;8.20;4.67;;;;;;;-0.58;94.27;97911.72;1827002;78;20978;-69
2021/12/20 06:42:40;;;;;;;10.18;4.50;;;;;;;-0.59;94.28;97908.77;1826988;78;20935;-67
2021/12/20 06:45:16;;;;;;;7.62;3.77;;;;;;;-0.60;94.22;97911.22;1827109;78;21972;-66
2021/12/20 06:47:43;;;;;;;5.90;3.67;;;;;;;-0.60;94.24;97913.11;1808781;78;20974;-66
2021/12/20 06:50:11;;;;;;;7.95;3.70;;;;;;;-0.59;94.33;97917.42;1826924;78;20985;-68
2021/12/20 06:52:37;;;;;;;9.10;4.03;;;;;;;-0.56;94.42;97923.07;1827043;78;20922;-68
2021/12/20 06:55:09;;;;;;;8.68;3.70;;;;;;;-0.51;94.37;97920.86;1826817;78;21541;-67
2021/12/20 06:57:40;;;;;;;14.10;4.33;;;;;;;-0.52;94.23;97923.31;1808796;78;21049;-67
2021/12/20 07:00:09;;;;;;;11.00;3.95;;;;;;;-0.52;94.21;97926.83;1826874;78;20906;-67
2021/12/20 07:02:38;;;;;;;8.45;3.90;;;;;;;-0.49;94.23;97926.80;1826861;78;21086;-66
2021/12/20 07:05:09;;;;;;;11.93;3.92;;;;;;;-0.48;94.19;97926.26;1826300;78;21431;-66
2021/12/20 07:07:37;;;;;;;5.62;3.47;;;;;;;-0.45;94.24;97931.09;1808380;78;21047;-67
2021/12/20 07:10:08;;;;;;;7.17;3.42;;;;;;;-0.43;94.25;97928.91;1826744;78;21030;-67
2021/12/20 07:12:38;;;;;;;11.60;4.80;;;;;;;-0.42;94.16;97927.81;1812652;78;20873;-67
2021/12/20 07:15:09;;;;;;;11.48;4.92;;;;;;;-0.43;94.22;97921.61;1838296;78;21468;-67
2021/12/20 07:17:36;;;;;;;6.87;3.33;;;;;;;-0.42;94.05;97935.93;1838701;78;20976;-66
2021/12/20 07:20:05;;;;;;;7.62;3.87;;;;;;;-0.46;94.15;97930.28;1838457;78;21015;-67
2021/12/20 07:22:34;;;;;;;14.35;4.47;;;;;;;-0.47;94.00;97938.69;1838491;78;21101;-67
2021/12/20 07:25:00;;;;;;;7.97;3.90;;;;;;;-0.48;94.15;97933.84;1813225;78;20916;-68
2021/12/20 07:27:27;;;;;;;10.32;5.03;;;;;;;-0.46;94.20;97944.38;1838515;78;21440;-66
2021/12/20 07:29:53;;;;;;;17.57;5.37;;;;;;;-0.42;94.30;97942.70;1838956;78;20908;-67
2021/12/20 07:32:24;;;;;;;5.50;3.92;;;;;;;-0.38;94.22;97942.40;1813123;78;20899;-67
2021/12/20 07:34:51;;;;;;;13.98;5.65;;;;;;;-0.37;94.19;97944.81;1838711;78;21129;-68
2021/12/20 07:37:21;;;;;;;11.22;5.95;;;;;;;-0.33;94.16;97949.12;1837016;78;20825;-67
2021/12/20 07:39:51;;;;;;;13.00;6.42;;;;;;;-0.32;93.97;97953.42;1838719;78;20970;-67
2021/12/20 07:42:24;;;;;;;12.37;6.15;;;;;;;-0.34;93.71;97954.82;1839039;78;20979;-67
2021/12/20 07:44:55;;;;;;;11.12;5.75;;;;;;;-0.38;93.74;97959.45;1839016;78;21039;-67
2021/12/20 07:47:40;;;;;;;11.43;5.90;;;;;;;-0.39;93.37;97959.72;1817916;78;20892;-69
2021/12/20 07:50:08;;;;;;;12.30;5.50;;;;;;;-0.45;93.41;97965.74;1813418;78;21393;-69
2021/12/20 07:52:34;;;;;;;10.75;5.08;;;;;;;-0.45;93.25;97973.05;1813117;78;21032;-68
2021/12/20 07:55:00;;;;;;;11.22;5.80;;;;;;;-0.45;93.36;97975.75;1838793;78;20983;-67
2021/12/20 07:57:28;;;;;;;12.98;6.97;;;;;;;-0.45;93.43;97983.88;1838892;78;20928;-67
2021/12/20 07:59:57;;;;;;;21.82;6.45;;;;;;;-0.42;93.43;97981.41;1838718;78;21795;-66
2021/12/20 08:02:24;;;;;;;12.33;5.33;;;;;;;-0.39;93.30;97986.25;1838658;78;21460;-67
2021/12/20 08:04:51;;;;;;;6.08;3.22;;;;;;;-0.36;93.34;97987.59;1838750;78;20887;-68
2021/12/20 08:07:21;;;;;;;13.28;4.00;;;;;;;-0.32;93.17;97984.56;1838687;78;20956;-67
2021/12/20 08:09:47;;;;;;;11.43;3.98;;;;;;;-0.29;92.87;97991.31;1838650;78;20975;-67
2021/12/20 08:12:15;;;;;;;15.58;5.28;;;;;;;-0.33;92.42;97988.37;1838199;77;21114;-66
2021/12/20 08:15:00;;;;;;;10.23;3.95;;;;;;;-0.32;92.70;97992.68;1838131;78;20891;-68
2021/12/20 08:17:26;;;;;;;13.35;5.33;;;;;;;-0.25;92.79;97987.75;1838137;78;20833;-66
2021/12/20 08:19:55;;;;;;;10.10;3.90;;;;;;;-0.23;92.47;97995.58;1838495;78;20975;-67
2021/12/20 08:22:24;;;;;;;6.80;2.90;;;;;;;-0.21;92.25;97996.64;1838081;78;20968;-67
2021/12/20 08:24:49;;;;;;;12.60;5.12;;;;;;;-0.19;92.17;97992.58;1838300;78;21685;-67
2021/12/20 08:27:17;;;;;;;10.08;3.12;;;;;;;-0.20;91.94;97990.94;1838020;78;20943;-68
2021/12/20 08:29:45;;;;;;;4.65;2.80;;;;;;;-0.19;91.61;97998.53;1808168;78;21046;-67
2021/12/20 08:32:13;;;;;;;6.75;3.08;;;;;;;-0.20;91.47;97995.00;1838054;78;20940;-66
2021/12/20 08:34:40;;;;;;;9.10;3.37;;;;;;;-0.22;91.37;98000.45;1838189;78;21011;-67
2021/12/20 08:37:09;;;;;;;8.65;3.83;;;;;;;-0.23;91.24;97990.70;1807852;78;21081;-67
2021/12/20 08:39:37;;;;;;;11.25;4.17;;;;;;;-0.25;91.32;97991.80;1837817;78;21373;-67
2021/12/20 08:42:22;;;;;;;8.10;3.70;;;;;;;-0.27;91.01;97991.81;1838348;78;20974;-67
2021/12/20 08:44:49;;;;;;;6.30;3.20;;;;;;;-0.30;91.18;97999.16;1808825;78;20983;-66
2021/12/20 08:47:34;;;;;;;7.03;3.72;;;;;;;-0.30;91.19;97996.45;1838058;78;20868;-67
2021/12/20 08:50:05;;;;;;;10.23;4.40;;;;;;;-0.29;91.10;98002.15;1838332;78;21096;-66
2021/12/20 08:52:33;;;;;;;4.42;2.85;;;;;;;-0.31;91.12;98004.33;1838278;77;20908;-67
2021/12/20 08:55:21;;;;;;;10.95;2.65;;;;;;;-0.26;91.33;98008.34;1838049;78;20950;-67
2021/12/20 08:57:49;;;;;;;14.53;5.83;;;;;;;-0.22;91.02;98001.25;1838028;78;20900;-67
2021/12/20 09:00:22;;;;;;;7.60;4.30;;;;;;;-0.27;91.04;98007.52;1838164;77;20963;-66
2021/12/20 09:02:50;;;;;;;10.23;3.70;;;;;;;-0.27;91.15;98004.00;1838163;77;21105;-67
2021/12/20 09:05:18;;;;;;;6.85;3.08;;;;;;;-0.24;91.11;98003.45;1838154;77;21363;-67
2021/12/20 09:08:04;;;;;;;5.35;2.92;;;;;;;-0.25;90.73;98004.53;1838042;78;20975;-68
2021/12/20 09:10:33;;;;;;;4.35;2.65;;;;;;;-0.29;90.71;98010.27;1837879;78;20935;-67
2021/12/20 09:13:03;;;;;;;5.30;2.72;;;;;;;-0.30;90.67;98007.28;1811872;78;20960;-67
2021/12/20 09:15:30;;;;;;;5.28;2.62;;;;;;;-0.28;90.76;98012.69;1813047;78;21040;-66
2021/12/20 09:17:57;;;;;;;12.93;3.55;;;;;;;-0.28;90.62;98008.62;1838531;78;21480;-66
2021/12/20 09:20:26;;;;;;;4.45;3.00;;;;;;;-0.27;90.80;98011.59;1838850;78;20995;-68
2021/12/20 09:22:57;;;;;;;9.80;4.28;;;;;;;-0.21;90.98;98009.64;1838745;78;20939;-67
2021/12/20 09:25:26;;;;;;;8.10;4.37;;;;;;;-0.12;91.13;98011.20;1838183;78;20909;-67
2021/12/20 09:27:55;;;;;;;7.62;3.35;;;;;;;-0.08;90.72;98004.09;1838110;78;21516;-68
2021/12/20 09:30:26;;;;;;;12.53;3.90;;;;;;;-0.09;90.72;98001.14;1839078;78;20932;-67
2021/12/20 09:32:53;;;;;;;9.30;3.87;;;;;;;-0.07;90.50;97993.51;1838816;78;20947;-66
2021/12/20 09:35:21;;;;;;;7.03;3.37;;;;;;;-0.04;90.51;97995.67;1838638;78;20974;-67
2021/12/20 09:37:51;;;;;;;7.65;3.90;;;;;;;-0.02;90.35;97995.38;1838733;78;20908;-67
2021/12/20 09:40:26;;;;;;;8.28;3.92;;;;;;;-0.01;90.26;97996.45;1838990;78;21483;-67
2021/12/20 09:42:51;;;;;;;6.28;3.37;;;;;;;-0.04;89.78;97990.79;1837455;78;20925;-68
2021/12/20 09:45:20;;;;;;;6.00;3.15;;;;;;;0.04;89.79;97990.70;1838791;78;20868;-67
2021/12/20 09:47:49;;;;;;;11.30;3.92;;;;;;;0.14;89.46;98002.78;1838561;78;20940;-68
2021/12/20 09:50:16;;;;;;;10.03;3.58;;;;;;;0.27;89.11;98003.19;1838983;78;20908;-67
2021/12/20 09:52:43;;;;;;;5.10;2.67;;;;;;;0.38;88.70;98002.50;1838742;78;21751;-67
2021/12/20 09:55:14;;;;;;;8.98;3.70;;;;;;;0.57;88.78;98004.72;1838603;78;21007;-67
2021/12/20 09:57:42;;;;;;;7.17;3.45;;;;;;;0.72;88.12;98002.35;1813171;78;21402;-67
2021/12/20 10:00:12;;;;;;;6.58;3.20;;;;;;;0.78;86.84;97996.86;1838974;78;20940;-68
2021/12/20 10:02:45;;;;;;;9.48;4.78;;;;;;;0.80;87.14;98003.59;1838782;78;21508;-67
2021/12/20 10:05:12;;;;;;;6.15;2.80;;;;;;;0.84;86.36;97995.69;1838680;78;21138;-67
2021/12/20 10:07:47;;;;;;;6.83;3.33;;;;;;;0.82;85.80;97993.84;1838254;78;20958;-66
2021/12/20 10:10:12;;;;;;;5.20;3.02;;;;;;;0.70;84.24;98006.47;1813222;78;20951;-66
2021/12/20 10:12:50;;;;;;;6.08;2.80;;;;;;;0.51;84.61;98004.54;1841479;77;21413;-68
2021/12/20 10:15:19;;;;;;;5.10;2.80;;;;;;;0.45;85.05;98002.97;1844353;77;20899;-68
2021/12/20 10:17:55;;;;;;;3.85;2.10;;;;;;;0.45;85.46;98003.78;1844113;77;21487;-68
2021/12/20 10:20:31;;;;;;;4.47;2.30;;;;;;;0.39;84.71;98009.02;1844437;77;20966;-69
2021/12/20 10:23:23;;;;;;;7.22;3.33;;;;;;;0.33;84.91;98012.86;1844427;77;20879;-67
2021/12/20 10:25:53;;;;;;;4.40;2.52;;;;;;;0.21;84.23;98008.67;1818715;77;20955;-67
2021/12/20 10:28:24;;;;;;;5.47;2.80;;;;;;;0.17;84.73;98008.97;1844345;77;20916;-69
2021/12/20 10:31:01;;;;;;;6.25;3.15;;;;;;;0.22;85.03;98009.48;1844103;77;21519;-67
2021/12/20 10:33:29;;;;;;;10.40;3.83;;;;;;;0.26;84.71;98014.57;1844270;77;20959;-68
2021/12/20 10:36:07;;;;;;;9.03;3.52;;;;;;;0.28;84.98;98011.56;1844502;77;21020;-70
2021/12/20 10:38:44;;;;;;;8.15;4.03;;;;;;;0.33;85.29;98008.26;1844295;77;20924;-68
2021/12/20 10:41:29;;;;;;;5.35;2.85;;;;;;;0.33;85.15;97999.31;1844060;77;20833;-67
2021/12/20 10:43:57;;;;;;;4.90;2.85;;;;;;;0.35;85.21;98007.43;1843810;77;23128;-68
2021/12/20 10:46:30;;;;;;;4.72;1.95;;;;;;;0.33;84.77;98003.37;1844432;77;20976;-67
2021/12/20 10:49:11;;;;;;;5.62;2.90;;;;;;;0.26;83.91;97998.88;1818960;77;20967;-67
2021/12/20 10:51:44;;;;;;;5.00;2.70;;;;;;;0.25;84.12;98007.55;1819876;77;20928;-68
2021/12/20 10:54:15;;;;;;;5.70;2.92;;;;;;;0.28;84.60;98009.67;1844455;77;20904;-68
2021/12/20 10:56:54;;;;;;;7.08;2.83;;;;;;;0.29;84.62;98011.84;1844054;77;21005;-68
2021/12/20 10:59:31;;;;;;;4.97;2.40;;;;;;;0.30;84.41;98008.03;1843963;77;20969;-67
2021/12/20 11:04:52;;;;;;;6.80;3.60;;;;;;;0.21;83.94;98010.02;1807539;77;20972;-68
2021/12/20 11:09:53;;;;;;;11.12;4.65;;;;;;;0.16;84.80;98010.61;1844183;77;21092;-67
2021/12/20 11:12:34;;;;;;;10.65;5.10;;;;;;;0.17;85.46;98010.89;1842610;77;21047;-68
2021/12/20 11:15:02;;;;;;;11.05;5.60;;;;;;;0.22;86.01;98011.63;1836060;78;20917;-67
2021/12/20 11:17:34;;;;;;;9.23;3.70;;;;;;;0.35;86.67;98013.39;1838107;77;20869;-67
2021/12/20 11:20:01;;;;;;;7.58;4.30;;;;;;;0.48;87.05;98014.04;1838699;77;20896;-67
2021/12/20 11:22:32;;;;;;;8.83;5.03;;;;;;;0.59;86.64;98018.80;1838078;78;21965;-67
2021/12/20 11:25:11;;;;;;;11.12;5.45;;;;;;;0.61;86.51;98018.51;1837851;78;20932;-67
2021/12/20 11:27:46;;;;;;;11.00;5.05;;;;;;;0.64;86.57;98024.70;1838230;77;20825;-67
2021/12/20 11:30:21;;;;;;;10.43;5.67;;;;;;;0.65;86.27;98022.23;1838214;78;21007;-66
2021/12/20 11:32:50;;;;;;;12.47;5.55;;;;;;;0.64;86.08;98030.12;1838088;77;21018;-67
2021/12/20 11:35:22;;;;;;;13.35;4.70;;;;;;;0.58;85.77;98027.22;1838661;78;22138;-67
2021/12/20 11:37:50;;;;;;;11.78;4.28;;;;;;;0.50;84.77;98029.20;1838186;77;21444;-66
2021/12/20 11:40:18;;;;;;;8.83;4.22;;;;;;;0.38;84.41;98029.06;1838403;78;20923;-66
2021/12/20 11:42:45;;;;;;;8.25;4.30;;;;;;;0.31;83.93;98028.06;1808460;78;21030;-66
2021/12/20 11:45:15;;;;;;;9.58;4.67;;;;;;;0.32;84.26;98030.23;1838680;78;20884;-66
2021/12/20 11:48:04;;;;;;;7.75;4.03;;;;;;;0.38;84.44;98027.71;1838162;77;21015;-66
2021/12/20 11:50:37;;;;;;;4.53;3.05;;;;;;;0.41;84.57;98033.91;1837829;77;21015;-68
2021/12/20 11:53:10;;;;;;;4.70;2.92;;;;;;;0.45;84.40;98038.20;1838140;77;20864;-69
2021/12/20 11:55:39;;;;;;;4.05;2.47;;;;;;;0.45;84.30;98040.91;1838242;78;20904;-66
2021/12/20 11:58:24;;;;;;;6.95;3.25;;;;;;;0.44;84.03;98038.77;1838171;78;20968;-68
2021/12/20 12:00:56;;;;;;;5.40;3.17;;;;;;;0.44;83.98;98032.53;1838838;78;21101;-67
2021/12/20 12:03:36;;;;;;;12.63;5.22;;;;;;;0.41;83.70;98039.33;1838076;78;20987;-68